createdAt,value
2023-02-06T00:01:15.515Z,5.25
2023-02-06T00:03:42.588Z,5.05
2023-02-06T00:06:09.622Z,4.40
2023-02-06T00:08:36.646Z,3.65
2023-02-06T00:11:09.273Z,4.80
2023-02-06T00:13:36.732Z,4.32
2023-02-06T00:16:04.498Z,4.82
2023-02-06T00:18:31.962Z,4.68
2023-02-06T00:20:58.873Z,4.97
2023-02-06T00:23:25.925Z,5.38
2023-02-06T00:25:52.900Z,5.32
2023-02-06T00:28:19.990Z,6.00
2023-02-06T00:30:48.362Z,5.60
2023-02-06T00:33:15.577Z,5.57
2023-02-06T00:35:42.578Z,5.75
2023-02-06T00:38:11.584Z,5.38
2023-02-06T00:40:38.689Z,5.05
2023-02-06T00:43:05.942Z,6.00
2023-02-06T00:45:33.503Z,5.05
2023-02-06T00:48:02.627Z,5.00
2023-02-06T00:50:29.974Z,4.85
2023-02-06T00:52:56.999Z,5.10
2023-02-06T00:55:24.163Z,3.80
2023-02-06T00:57:51.179Z,5.10
2023-02-06T01:00:18.244Z,4.88
2023-02-06T01:02:45.416Z,4.75
2023-02-06T01:05:12.477Z,4.55
2023-02-06T01:07:40.573Z,4.88
2023-02-06T01:10:09.731Z,4.32
2023-02-06T01:12:37.194Z,4.28
2023-02-06T01:15:06.597Z,5.10
2023-02-06T01:17:34.520Z,4.93
2023-02-06T01:20:01.769Z,5.55
2023-02-06T01:22:29.045Z,4.75
2023-02-06T01:24:56.036Z,4.57
2023-02-06T01:27:23.081Z,4.70
2023-02-06T01:29:50.025Z,4.85
2023-02-06T01:32:17.223Z,4.28
2023-02-06T01:34:44.197Z,3.55
2023-02-06T01:37:11.172Z,5.05
2023-02-06T01:39:39.203Z,4.82
2023-02-06T01:42:06.428Z,3.55
2023-02-06T01:44:34.180Z,5.07
2023-02-06T01:47:01.448Z,6.22
2023-02-06T01:49:36.287Z,12.48
2023-02-06T01:52:18.113Z,7.20
2023-02-06T01:54:49.294Z,4.93
2023-02-06T01:57:17.308Z,5.75
2023-02-06T01:59:49.617Z,5.60
2023-02-06T02:02:16.888Z,8.20
2023-02-06T02:04:45.028Z,6.32
2023-02-06T02:07:25.364Z,13.77
2023-02-06T02:09:52.743Z,7.68
2023-02-06T02:12:20.561Z,5.97
2023-02-06T02:14:50.140Z,8.25
2023-02-06T02:17:39.265Z,4.88
2023-02-06T02:20:33.958Z,7.03
2023-02-06T02:23:19.025Z,4.93
2023-02-06T02:28:34.173Z,4.53
2023-02-06T02:31:19.037Z,4.88
2023-02-06T02:34:23.499Z,6.80
2023-02-06T02:37:25.191Z,5.57
2023-02-06T02:40:12.182Z,4.40
2023-02-06T02:43:00.113Z,4.55
2023-02-06T02:45:54.577Z,4.60
2023-02-06T02:48:26.661Z,4.72
2023-02-06T02:50:55.603Z,3.85
2023-02-06T02:53:22.652Z,4.75
2023-02-06T02:55:49.799Z,5.47
2023-02-06T02:58:23.145Z,5.10
2023-02-06T03:01:00.744Z,7.07
2023-02-06T03:03:29.783Z,5.85
2023-02-06T03:06:35.597Z,7.57
2023-02-06T03:09:28.246Z,6.22
2023-02-06T03:12:07.039Z,5.70
2023-02-06T03:14:45.943Z,5.50
2023-02-06T03:17:18.234Z,3.53
2023-02-06T03:19:53.194Z,4.75
2023-02-06T03:22:21.917Z,5.57
2023-02-06T03:24:51.309Z,5.07
2023-02-06T03:27:20.524Z,5.43
2023-02-06T03:29:49.157Z,5.57
2023-02-06T03:32:18.909Z,5.00
2023-02-06T03:35:00.030Z,5.22
2023-02-06T03:37:28.540Z,5.07
2023-02-06T03:39:58.246Z,5.00
2023-02-06T03:42:27.214Z,6.30
2023-02-06T03:45:12.797Z,5.68
2023-02-06T03:47:42.180Z,6.22
2023-02-06T03:50:12.028Z,6.25
2023-02-06T03:52:44.897Z,5.05
2023-02-06T03:55:19.988Z,6.10
2023-02-06T03:57:51.712Z,4.65
2023-02-06T04:00:19.296Z,5.72
2023-02-06T04:02:47.692Z,5.47
2023-02-06T04:05:19.076Z,5.88
2023-02-06T04:07:46.149Z,5.97
2023-02-06T04:10:13.139Z,7.00
2023-02-06T04:12:40.175Z,8.35
2023-02-06T04:15:07.445Z,7.68
2023-02-06T04:17:49.819Z,5.22
2023-02-06T04:20:21.356Z,6.03
2023-02-06T04:22:48.377Z,5.25
2023-02-06T04:25:15.434Z,7.40
2023-02-06T04:27:42.392Z,5.30
2023-02-06T04:30:10.034Z,5.68
2023-02-06T04:32:37.001Z,6.40
2023-02-06T04:35:04.755Z,5.13
2023-02-06T04:37:32.690Z,6.80
2023-02-06T04:39:59.683Z,6.00
2023-02-06T04:42:26.718Z,6.60
2023-02-06T04:44:53.747Z,6.90
2023-02-06T04:47:20.663Z,5.22
2023-02-06T04:49:47.649Z,6.18
2023-02-06T04:52:14.565Z,6.60
2023-02-06T04:54:41.683Z,6.55
2023-02-06T04:57:08.817Z,5.25
2023-02-06T04:59:35.794Z,6.07
2023-02-06T05:02:02.764Z,5.78
2023-02-06T05:04:29.833Z,6.60
2023-02-06T05:06:56.840Z,5.70
2023-02-06T05:09:23.877Z,6.28
2023-02-06T05:11:50.864Z,6.15
2023-02-06T05:14:17.832Z,5.95
2023-02-06T05:16:45.766Z,5.50
2023-02-06T05:19:12.842Z,4.82
2023-02-06T05:21:39.823Z,5.30
2023-02-06T05:24:07.014Z,7.00
2023-02-06T05:26:33.973Z,6.20
2023-02-06T05:29:00.970Z,5.40
2023-02-06T05:31:28.070Z,5.88
2023-02-06T05:33:55.251Z,5.80
2023-02-06T05:36:22.789Z,6.00
2023-02-06T05:38:50.290Z,5.60
2023-02-06T05:41:17.711Z,4.63
2023-02-06T05:43:44.817Z,5.15
2023-02-06T05:46:13.034Z,4.50
2023-02-06T05:48:40.824Z,5.03
2023-02-06T05:51:07.838Z,5.15
2023-02-06T05:53:34.964Z,5.10
2023-02-06T05:56:01.987Z,5.40
2023-02-06T05:58:29.014Z,5.82
2023-02-06T06:00:56.045Z,5.63
2023-02-06T06:03:23.096Z,5.95
2023-02-06T06:05:50.754Z,6.22
2023-02-06T06:08:19.144Z,7.47
2023-02-06T06:10:46.102Z,7.47
2023-02-06T06:13:13.108Z,7.30
2023-02-06T06:15:40.050Z,7.97
2023-02-06T06:18:07.211Z,7.63
2023-02-06T06:20:34.201Z,8.93
2023-02-06T06:23:01.163Z,9.05
2023-02-06T06:25:28.212Z,7.70
2023-02-06T06:27:55.248Z,7.00
2023-02-06T06:30:22.221Z,8.73
2023-02-06T06:32:49.264Z,7.50
2023-02-06T06:35:16.249Z,7.50
2023-02-06T06:37:43.364Z,7.43
2023-02-06T06:40:11.313Z,7.80
2023-02-06T06:42:38.317Z,9.40
2023-02-06T06:45:05.813Z,8.90
2023-02-06T06:47:32.881Z,8.88
2023-02-06T06:49:59.833Z,8.88
2023-02-06T06:52:26.837Z,7.90
2023-02-06T06:54:54.366Z,11.30
2023-02-06T06:57:22.435Z,8.98
2023-02-06T06:59:49.807Z,9.23
2023-02-06T07:02:17.389Z,10.38
2023-02-06T07:04:44.499Z,10.02
2023-02-06T07:07:11.573Z,10.63
2023-02-06T07:09:38.623Z,11.93
2023-02-06T07:12:06.187Z,11.10
2023-02-06T07:14:33.134Z,12.48
2023-02-06T07:17:01.729Z,12.00
2023-02-06T07:19:28.797Z,11.27
2023-02-06T07:21:55.852Z,11.80
2023-02-06T07:24:22.875Z,11.93
2023-02-06T07:26:49.897Z,12.65
2023-02-06T07:29:16.888Z,12.48
2023-02-06T07:31:43.957Z,13.23
2023-02-06T07:34:11.029Z,15.02
2023-02-06T07:36:38.734Z,14.07
2023-02-06T07:39:05.782Z,15.95
2023-02-06T07:41:32.784Z,15.45
2023-02-06T07:43:59.890Z,14.48
2023-02-06T07:46:27.036Z,16.00
2023-02-06T07:48:54.045Z,15.00
2023-02-06T07:51:21.065Z,15.93
2023-02-06T07:53:48.797Z,15.13
2023-02-06T07:56:18.439Z,13.50
2023-02-06T07:58:49.617Z,16.45
2023-02-06T08:01:16.956Z,15.02
2023-02-06T08:03:43.897Z,15.90
2023-02-06T08:06:13.242Z,15.57
2023-02-06T08:08:40.621Z,16.55
2023-02-06T08:11:09.648Z,14.32
2023-02-06T08:13:37.058Z,14.80
2023-02-06T08:16:10.100Z,16.40
2023-02-06T08:18:37.708Z,14.15
2023-02-06T08:21:15.911Z,14.45
2023-02-06T08:23:43.664Z,15.25
2023-02-06T08:26:16.553Z,14.52
2023-02-06T08:28:46.136Z,15.38
2023-02-06T08:31:25.598Z,15.30
2023-02-06T08:33:53.124Z,14.88
2023-02-06T08:36:21.374Z,17.00
2023-02-06T08:38:49.154Z,15.40
2023-02-06T08:41:24.831Z,16.05
2023-02-06T08:43:54.716Z,16.90
2023-02-06T08:46:23.393Z,18.52
2023-02-06T08:48:58.293Z,18.30
2023-02-06T08:51:28.541Z,16.08
2023-02-06T08:54:03.442Z,18.27
2023-02-06T08:56:31.201Z,14.95
2023-02-06T08:59:01.542Z,15.88
2023-02-06T09:01:30.455Z,15.65
2023-02-06T09:03:59.625Z,21.00
2023-02-06T09:06:27.482Z,19.85
2023-02-06T09:08:55.780Z,18.00
2023-02-06T09:11:24.919Z,16.77
2023-02-06T09:13:54.650Z,18.58
2023-02-06T09:16:22.232Z,14.93
2023-02-06T09:18:52.241Z,16.38
2023-02-06T09:21:24.721Z,14.57
2023-02-06T09:23:54.898Z,16.15
2023-02-06T09:26:27.134Z,14.98
2023-02-06T09:29:00.632Z,17.85
2023-02-06T09:31:32.462Z,17.10
2023-02-06T09:34:03.140Z,16.35
2023-02-06T09:36:30.583Z,12.95
2023-02-06T09:38:58.368Z,14.27
2023-02-06T09:41:36.384Z,12.80
2023-02-06T09:44:25.331Z,17.67
2023-02-06T09:47:01.898Z,17.25
2023-02-06T09:49:39.658Z,15.90
2023-02-06T09:52:14.843Z,15.35
2023-02-06T09:55:01.063Z,15.07
2023-02-06T09:57:41.759Z,15.73
2023-02-06T10:00:32.702Z,13.95
2023-02-06T10:03:42.666Z,13.93
2023-02-06T10:06:27.088Z,15.52
2023-02-06T10:11:55.972Z,12.48
2023-02-06T10:14:40.689Z,15.52
2023-02-06T10:17:32.062Z,17.30
2023-02-06T10:20:36.413Z,14.57
2023-02-06T10:23:12.943Z,21.35
2023-02-06T10:25:49.828Z,15.25
2023-02-06T10:28:23.478Z,14.52
2023-02-06T10:31:11.476Z,19.65
2023-02-06T10:33:57.053Z,14.98
2023-02-06T10:36:34.322Z,15.57
2023-02-06T10:39:25.904Z,14.82
2023-02-06T10:42:13.740Z,14.45
2023-02-06T10:45:13.143Z,13.23
2023-02-06T10:47:56.280Z,13.35
2023-02-06T10:50:34.685Z,12.70
2023-02-06T10:53:11.832Z,13.63
2023-02-06T10:56:05.000Z,12.27
2023-02-06T10:58:38.393Z,14.02
2023-02-06T11:01:23.707Z,11.95
2023-02-06T11:04:06.459Z,13.95
2023-02-06T11:06:34.380Z,14.32
2023-02-06T11:09:01.419Z,13.05
2023-02-06T11:11:36.705Z,14.35
2023-02-06T11:14:16.153Z,13.25
2023-02-06T11:16:44.649Z,17.67
2023-02-06T11:19:25.302Z,15.85
2023-02-06T11:22:09.084Z,13.52
2023-02-06T11:24:37.748Z,13.48
2023-02-06T11:27:17.210Z,12.93
2023-02-06T11:29:50.405Z,17.00
2023-02-06T11:32:52.807Z,13.85
2023-02-06T11:35:38.553Z,13.65
2023-02-06T11:38:20.913Z,13.27
2023-02-06T11:40:57.136Z,14.13
2023-02-06T11:43:26.747Z,13.45
2023-02-06T11:46:23.482Z,15.55
2023-02-06T11:48:56.598Z,14.05
2023-02-06T11:51:24.591Z,12.52
2023-02-06T11:54:02.141Z,12.65
2023-02-06T11:56:30.972Z,10.18
2023-02-06T11:59:17.124Z,9.52
2023-02-06T12:01:46.666Z,10.82
2023-02-06T12:04:25.564Z,9.88
2023-02-06T12:06:58.615Z,9.57
2023-02-06T12:09:26.959Z,11.02
2023-02-06T12:12:06.413Z,12.38
2023-02-06T12:14:46.499Z,11.38
2023-02-06T12:17:37.713Z,11.27
2023-02-06T12:20:18.857Z,12.32
2023-02-06T12:22:58.307Z,11.18
2023-02-06T12:25:31.542Z,11.48
2023-02-06T12:28:10.411Z,11.63
2023-02-06T12:30:55.744Z,9.85
2023-02-06T12:33:34.065Z,9.68
2023-02-06T12:36:17.338Z,11.65
2023-02-06T12:38:49.813Z,10.95
2023-02-06T12:41:31.885Z,11.25
2023-02-06T12:44:05.541Z,11.02
2023-02-06T12:46:33.220Z,9.80
2023-02-06T12:49:10.981Z,10.18
2023-02-06T12:51:42.281Z,9.93
2023-02-06T12:54:28.461Z,11.90
2023-02-06T12:57:15.977Z,9.82
2023-02-06T13:00:05.554Z,12.20
2023-02-06T13:02:47.630Z,9.38
2023-02-06T13:06:00.112Z,9.60
2023-02-06T13:08:39.305Z,7.30
2023-02-06T13:11:35.638Z,7.47
2023-02-06T13:14:18.462Z,7.70
2023-02-06T13:16:54.315Z,8.10
2023-02-06T13:19:44.722Z,7.80
2023-02-06T13:22:13.128Z,7.50
2023-02-06T13:24:42.222Z,7.45
2023-02-06T13:27:09.216Z,6.25
2023-02-06T13:29:43.839Z,7.18
2023-02-06T13:32:20.170Z,7.05
2023-02-06T13:34:53.733Z,8.18
2023-02-06T13:37:37.726Z,8.40
2023-02-06T13:40:30.535Z,9.30
2023-02-06T13:43:03.640Z,7.32
2023-02-06T13:45:55.832Z,7.78
2023-02-06T13:48:54.302Z,9.00
2023-02-06T13:51:39.586Z,5.65
2023-02-06T13:54:35.288Z,6.80
2023-02-06T13:57:34.400Z,8.43
2023-02-06T14:00:13.411Z,8.13
2023-02-06T14:02:53.831Z,7.22
2023-02-06T14:05:26.225Z,6.80
2023-02-06T14:08:16.208Z,7.85
2023-02-06T14:11:05.233Z,7.22
2023-02-06T14:13:44.108Z,6.35
2023-02-06T14:16:29.156Z,6.10
2023-02-06T14:18:59.106Z,6.85
2023-02-06T14:21:47.009Z,7.07
2023-02-06T14:24:49.874Z,8.43
2023-02-06T14:28:12.226Z,7.60
2023-02-06T14:30:55.714Z,7.28
2023-02-06T14:33:59.301Z,9.50
2023-02-06T14:36:50.132Z,10.70
2023-02-06T14:39:32.253Z,9.73
2023-02-06T14:41:59.351Z,8.95
2023-02-06T14:44:31.443Z,9.48
2023-02-06T14:46:59.027Z,11.27
2023-02-06T14:49:37.349Z,9.80
2023-02-06T14:52:05.296Z,9.55
2023-02-06T14:54:35.581Z,8.45
2023-02-06T14:57:05.814Z,9.00
2023-02-06T14:59:33.289Z,11.10
2023-02-06T15:02:13.710Z,11.60
2023-02-06T15:04:47.702Z,10.40
2023-02-06T15:07:28.664Z,9.75
2023-02-06T15:10:06.139Z,10.57
2023-02-06T15:12:34.053Z,9.10
2023-02-06T15:15:02.957Z,7.50
2023-02-06T15:17:31.594Z,8.05
2023-02-06T15:20:34.169Z,8.18
2023-02-06T15:23:17.281Z,9.10
2023-02-06T15:26:02.829Z,7.53
2023-02-06T15:28:32.380Z,8.55
2023-02-06T15:31:01.251Z,12.25
2023-02-06T15:33:35.193Z,7.30
2023-02-06T15:36:04.393Z,9.85
2023-02-06T15:38:33.170Z,6.88
2023-02-06T15:41:06.364Z,6.15
2023-02-06T15:43:34.460Z,8.97
2023-02-06T15:46:04.321Z,6.88
2023-02-06T15:49:03.296Z,5.85
2023-02-06T15:51:39.823Z,5.53
2023-02-06T15:54:16.223Z,6.90
2023-02-06T15:56:47.989Z,6.30
2023-02-06T15:59:20.899Z,6.00
2023-02-06T16:01:48.814Z,8.10
2023-02-06T16:04:26.752Z,6.13
2023-02-06T16:07:16.357Z,6.68
2023-02-06T16:09:51.237Z,7.25
2023-02-06T16:12:18.691Z,8.23
2023-02-06T16:14:58.686Z,9.15
2023-02-06T16:17:34.836Z,9.45
2023-02-06T16:20:24.032Z,9.77
2023-02-06T16:22:51.533Z,10.13
2023-02-06T16:25:25.945Z,11.27
2023-02-06T16:27:53.566Z,11.40
2023-02-06T16:30:31.512Z,11.07
2023-02-06T16:33:08.111Z,11.52
2023-02-06T16:35:35.203Z,12.13
2023-02-06T16:38:02.107Z,12.18
2023-02-06T16:40:29.222Z,12.55
2023-02-06T16:42:56.259Z,12.18
2023-02-06T16:45:27.051Z,12.75
2023-02-06T16:47:55.118Z,13.32
2023-02-06T16:50:22.671Z,13.35
2023-02-06T16:52:52.495Z,11.20
2023-02-06T16:55:25.135Z,12.68
2023-02-06T16:57:56.478Z,12.48
2023-02-06T17:00:26.879Z,12.38
2023-02-06T17:02:54.394Z,12.00
2023-02-06T17:05:23.929Z,13.10
2023-02-06T17:07:51.507Z,12.05
2023-02-06T17:10:21.531Z,11.48
2023-02-06T17:12:49.397Z,12.70
2023-02-06T17:15:18.403Z,12.13
2023-02-06T17:17:46.081Z,13.52
2023-02-06T17:20:37.264Z,16.08
2023-02-06T17:23:05.409Z,13.77
2023-02-06T17:25:32.754Z,14.63
2023-02-06T17:28:01.672Z,15.30
2023-02-06T17:30:28.879Z,14.95
2023-02-06T17:32:56.489Z,14.93
2023-02-06T17:35:23.626Z,14.98
2023-02-06T17:37:51.641Z,15.40
2023-02-06T17:40:22.255Z,13.73
2023-02-06T17:42:49.917Z,13.85
2023-02-06T17:45:17.014Z,13.10
2023-02-06T17:47:44.153Z,13.90
2023-02-06T17:50:14.592Z,13.50
2023-02-06T17:52:41.592Z,13.02
2023-02-06T17:55:09.369Z,13.73
2023-02-06T17:57:37.363Z,13.18
2023-02-06T18:00:06.890Z,11.57
2023-02-06T18:02:35.850Z,14.35
2023-02-06T18:05:04.070Z,14.82
2023-02-06T18:07:31.156Z,13.13
2023-02-06T18:09:58.127Z,13.38
2023-02-06T18:12:25.229Z,12.70
2023-02-06T18:14:52.197Z,13.98
2023-02-06T18:17:19.309Z,13.10
2023-02-06T18:19:48.315Z,13.50
2023-02-06T18:22:18.466Z,11.73
2023-02-06T18:24:45.981Z,12.70
2023-02-06T18:27:13.717Z,12.57
2023-02-06T18:29:49.871Z,12.13
2023-02-06T18:32:18.705Z,12.15
2023-02-06T18:34:46.341Z,12.45
2023-02-06T18:37:13.713Z,16.13
2023-02-06T18:39:40.807Z,16.17
2023-02-06T18:42:26.387Z,14.52
2023-02-06T18:44:53.377Z,15.77
2023-02-06T18:47:20.346Z,16.08
2023-02-06T18:49:47.466Z,15.32
2023-02-06T18:52:14.457Z,16.52
2023-02-06T18:54:42.452Z,19.17
2023-02-06T18:57:09.458Z,18.95
2023-02-06T18:59:36.657Z,17.38
2023-02-06T19:02:03.868Z,16.75
2023-02-06T19:04:30.911Z,19.27
2023-02-06T19:06:57.913Z,19.08
2023-02-06T19:09:24.998Z,24.55
2023-02-06T19:11:51.976Z,27.38
2023-02-06T19:14:22.765Z,29.60
2023-02-06T19:16:53.245Z,37.67
2023-02-06T19:19:20.733Z,35.40
2023-02-06T19:21:47.769Z,34.40
2023-02-06T19:24:16.200Z,29.75
2023-02-06T19:26:43.223Z,35.10
2023-02-06T19:29:14.698Z,41.40
2023-02-06T19:31:42.765Z,31.60
2023-02-06T19:34:09.838Z,26.48
2023-02-06T19:36:37.122Z,24.58
2023-02-06T19:39:06.685Z,22.10
2023-02-06T19:41:34.251Z,18.45
2023-02-06T19:44:09.697Z,18.08
2023-02-06T19:46:37.382Z,18.33
2023-02-06T19:49:06.285Z,16.65
2023-02-06T19:51:36.347Z,18.45
2023-02-06T19:54:04.138Z,18.05
2023-02-06T19:56:40.081Z,17.48
2023-02-06T19:59:23.266Z,18.17
2023-02-06T20:01:53.158Z,17.13
2023-02-06T20:04:24.261Z,16.92
2023-02-06T20:06:51.381Z,14.82
2023-02-06T20:09:20.319Z,16.95
2023-02-06T20:11:49.162Z,16.63
2023-02-06T20:14:17.597Z,17.13
2023-02-06T20:16:45.091Z,16.75
2023-02-06T20:19:15.639Z,16.08
2023-02-06T20:21:46.097Z,15.23
2023-02-06T20:24:20.823Z,16.00
2023-02-06T20:26:49.872Z,15.93
2023-02-06T20:29:26.685Z,14.75
2023-02-06T20:31:54.427Z,13.25
2023-02-06T20:34:21.894Z,12.75
2023-02-06T20:36:50.153Z,12.48
2023-02-06T20:39:18.137Z,12.75
2023-02-06T20:41:46.019Z,12.18
2023-02-06T20:44:14.069Z,13.15
2023-02-06T20:46:42.438Z,13.57
2023-02-06T20:49:21.421Z,13.35
2023-02-06T20:51:49.512Z,13.73
2023-02-06T20:54:17.870Z,12.98
2023-02-06T20:56:45.078Z,11.98
2023-02-06T20:59:14.417Z,11.93
2023-02-06T21:01:41.747Z,10.98
2023-02-06T21:04:11.325Z,10.80
2023-02-06T21:06:39.349Z,10.32
2023-02-06T21:09:08.073Z,9.25
2023-02-06T21:11:39.746Z,10.07
2023-02-06T21:14:07.187Z,9.90
2023-02-06T21:16:35.831Z,9.70
2023-02-06T21:19:04.704Z,10.70
2023-02-06T21:21:32.091Z,9.60
2023-02-06T21:23:59.381Z,8.88
2023-02-06T21:26:27.257Z,9.60
2023-02-06T21:28:55.242Z,10.25
2023-02-06T21:31:25.317Z,8.88
2023-02-06T21:33:52.701Z,9.50
2023-02-06T21:36:21.118Z,8.98
2023-02-06T21:38:48.576Z,9.82
2023-02-06T21:41:17.859Z,9.35
2023-02-06T21:43:45.670Z,8.20
2023-02-06T21:46:13.520Z,9.43
2023-02-06T21:48:41.434Z,9.60
2023-02-06T21:51:14.144Z,8.15
2023-02-06T21:53:42.041Z,10.23
2023-02-06T21:56:15.850Z,10.23
2023-02-06T21:58:42.952Z,9.05
2023-02-06T22:01:24.717Z,9.20
2023-02-06T22:03:51.873Z,8.70
2023-02-06T22:06:20.071Z,9.30
2023-02-06T22:08:51.737Z,9.93
2023-02-06T22:11:27.623Z,8.60
2023-02-06T22:14:00.060Z,8.18
2023-02-06T22:16:28.072Z,7.72
2023-02-06T22:18:55.948Z,9.35
2023-02-06T22:21:25.541Z,9.02
2023-02-06T22:23:55.381Z,9.40
2023-02-06T22:26:22.425Z,8.70
2023-02-06T22:28:49.867Z,8.77
2023-02-06T22:31:19.890Z,8.43
2023-02-06T22:33:46.996Z,8.82
2023-02-06T22:36:17.307Z,6.90
2023-02-06T22:38:45.599Z,9.68
2023-02-06T22:41:16.297Z,8.23
2023-02-06T22:43:45.162Z,9.48
2023-02-06T22:46:26.873Z,10.02
2023-02-06T22:48:54.807Z,8.73
2023-02-06T22:51:22.798Z,9.68
2023-02-06T22:53:50.207Z,8.93
2023-02-06T22:56:29.618Z,9.15
2023-02-06T22:59:06.710Z,9.65
2023-02-06T23:01:39.320Z,14.30
2023-02-06T23:04:10.458Z,12.05
2023-02-06T23:06:37.597Z,10.15
2023-02-06T23:09:07.532Z,11.30
2023-02-06T23:11:35.582Z,9.60
2023-02-06T23:14:04.999Z,8.85
2023-02-06T23:16:33.975Z,8.73
2023-02-06T23:19:04.631Z,9.82
2023-02-06T23:21:33.875Z,9.05
2023-02-06T23:24:00.895Z,8.95
2023-02-06T23:26:29.098Z,8.30
2023-02-06T23:29:00.644Z,9.60
2023-02-06T23:31:28.925Z,7.82
2023-02-06T23:33:56.458Z,8.77
2023-02-06T23:36:25.009Z,8.52
2023-02-06T23:38:52.076Z,7.80
2023-02-06T23:41:22.245Z,7.55
2023-02-06T23:44:01.585Z,7.38
2023-02-06T23:46:30.902Z,8.15
2023-02-06T23:48:58.190Z,8.02
2023-02-06T23:51:26.038Z,6.90
2023-02-06T23:53:53.470Z,6.30
2023-02-06T23:56:23.616Z,8.43
2023-02-06T23:58:51.035Z,8.93
